Terminal Aerodrome Forecast
Issued by NWS Sioux Falls, SD

Home | Current Version | Previous Version | Graphics & Text | Print | Product List | Glossary On
Versions: 1 2 3 4 5 6 7 8 9 10 11 12 13 14 15 16 17 18
227
FTUS43 KFSD 260353 AAB
TAFHON
TAF AMD
KHON 260353Z 2604/2624 35015G24KT P6SM OVC011
     FM261500 34016G25KT P6SM OVC010
     FM261900 34016G24KT P6SM OVC020=

USA.gov is the U.S. government's official web portal to all federal, state and local government web resources and services.